sensor_id;sensor_type;location;lat;lon;timestamp;temperature;humidity
26164;DHT22;13914;48.178;11.716;2023-05-02T00:00:08;10.70;42.10
26164;DHT22;13914;48.178;11.716;2023-05-02T00:02:34;10.70;42.30
26164;DHT22;13914;48.178;11.716;2023-05-02T00:05:00;10.80;42.30
26164;DHT22;13914;48.178;11.716;2023-05-02T00:07:26;10.70;42.00
26164;DHT22;13914;48.178;11.716;2023-05-02T00:09:52;10.70;41.90
26164;DHT22;13914;48.178;11.716;2023-05-02T00:12:18;10.70;42.20
26164;DHT22;13914;48.178;11.716;2023-05-02T00:14:43;10.60;42.20
26164;DHT22;13914;48.178;11.716;2023-05-02T00:17:15;10.70;42.20
26164;DHT22;13914;48.178;11.716;2023-05-02T00:19:41;10.70;42.30
26164;DHT22;13914;48.178;11.716;2023-05-02T00:22:07;10.60;42.10
26164;DHT22;13914;48.178;11.716;2023-05-02T00:24:33;10.60;42.30
26164;DHT22;13914;48.178;11.716;2023-05-02T00:26:59;10.60;42.00
26164;DHT22;13914;48.178;11.716;2023-05-02T00:29:25;10.60;42.00
26164;DHT22;13914;48.178;11.716;2023-05-02T00:31:50;10.60;42.00
26164;DHT22;13914;48.178;11.716;2023-05-02T00:34:16;10.60;41.80
26164;DHT22;13914;48.178;11.716;2023-05-02T00:36:42;10.60;42.50
26164;DHT22;13914;48.178;11.716;2023-05-02T00:39:07;10.60;42.50
26164;DHT22;13914;48.178;11.716;2023-05-02T00:41:33;10.60;42.70
26164;DHT22;13914;48.178;11.716;2023-05-02T00:43:59;10.60;42.30
26164;DHT22;13914;48.178;11.716;2023-05-02T00:46:25;10.60;42.80
26164;DHT22;13914;48.178;11.716;2023-05-02T00:48:51;10.60;42.40
26164;DHT22;13914;48.178;11.716;2023-05-02T00:51:17;10.60;42.60
26164;DHT22;13914;48.178;11.716;2023-05-02T00:53:43;10.50;42.00
26164;DHT22;13914;48.178;11.716;2023-05-02T00:56:08;10.50;42.10
26164;DHT22;13914;48.178;11.716;2023-05-02T00:58:34;10.50;42.50
26164;DHT22;13914;48.178;11.716;2023-05-02T01:06:35;10.50;42.50
26164;DHT22;13914;48.178;11.716;2023-05-02T01:11:59;10.50;42.40
26164;DHT22;13914;48.178;11.716;2023-05-02T01:14:30;10.40;42.30
26164;DHT22;13914;48.178;11.716;2023-05-02T01:17:01;10.40;43.10
26164;DHT22;13914;48.178;11.716;2023-05-02T01:19:30;10.30;42.10
26164;DHT22;13914;48.178;11.716;2023-05-02T01:21:58;10.30;42.70
26164;DHT22;13914;48.178;11.716;2023-05-02T01:24:41;10.40;42.60
26164;DHT22;13914;48.178;11.716;2023-05-02T01:27:21;10.30;42.50
26164;DHT22;13914;48.178;11.716;2023-05-02T01:29:52;10.30;42.40
26164;DHT22;13914;48.178;11.716;2023-05-02T01:32:19;10.30;42.30
26164;DHT22;13914;48.178;11.716;2023-05-02T01:34:47;10.20;42.40
26164;DHT22;13914;48.178;11.716;2023-05-02T01:37:14;10.20;43.20
26164;DHT22;13914;48.178;11.716;2023-05-02T01:39:42;10.20;42.00
26164;DHT22;13914;48.178;11.716;2023-05-02T01:42:08;10.20;42.30
26164;DHT22;13914;48.178;11.716;2023-05-02T01:44:34;10.20;42.40
26164;DHT22;13914;48.178;11.716;2023-05-02T01:47:01;10.20;42.50
26164;DHT22;13914;48.178;11.716;2023-05-02T01:49:29;10.10;42.30
26164;DHT22;13914;48.178;11.716;2023-05-02T01:51:57;10.10;41.90
26164;DHT22;13914;48.178;11.716;2023-05-02T01:54:28;10.10;42.50
26164;DHT22;13914;48.178;11.716;2023-05-02T01:56:54;10.10;42.50
26164;DHT22;13914;48.178;11.716;2023-05-02T01:59:21;10.10;43.00
26164;DHT22;13914;48.178;11.716;2023-05-02T02:01:47;10.10;42.50
26164;DHT22;13914;48.178;11.716;2023-05-02T02:04:14;10.00;42.30
26164;DHT22;13914;48.178;11.716;2023-05-02T02:06:41;10.00;42.50
26164;DHT22;13914;48.178;11.716;2023-05-02T02:09:10;10.00;42.60
26164;DHT22;13914;48.178;11.716;2023-05-02T02:11:42;10.00;42.50
26164;DHT22;13914;48.178;11.716;2023-05-02T02:14:16;10.00;42.50
26164;DHT22;13914;48.178;11.716;2023-05-02T02:16:44;9.90;42.40
26164;DHT22;13914;48.178;11.716;2023-05-02T02:19:12;9.90;42.80
26164;DHT22;13914;48.178;11.716;2023-05-02T02:21:41;9.90;42.90
26164;DHT22;13914;48.178;11.716;2023-05-02T02:24:07;9.90;42.50
26164;DHT22;13914;48.178;11.716;2023-05-02T02:26:34;9.90;42.50
26164;DHT22;13914;48.178;11.716;2023-05-02T02:29:01;9.80;42.40
26164;DHT22;13914;48.178;11.716;2023-05-02T02:31:31;9.80;42.50
26164;DHT22;13914;48.178;11.716;2023-05-02T02:33:58;9.80;42.50
26164;DHT22;13914;48.178;11.716;2023-05-02T02:36:26;9.80;42.30
26164;DHT22;13914;48.178;11.716;2023-05-02T02:39:11;9.80;42.90
26164;DHT22;13914;48.178;11.716;2023-05-02T02:41:45;9.80;43.10
26164;DHT22;13914;48.178;11.716;2023-05-02T02:44:33;9.70;42.90
26164;DHT22;13914;48.178;11.716;2023-05-02T02:47:22;9.70;42.90
26164;DHT22;13914;48.178;11.716;2023-05-02T02:52:47;9.70;42.50
26164;DHT22;13914;48.178;11.716;2023-05-02T02:57:59;9.70;42.30
26164;DHT22;13914;48.178;11.716;2023-05-02T03:00:28;9.70;42.80
26164;DHT22;13914;48.178;11.716;2023-05-02T03:02:56;9.70;41.90
26164;DHT22;13914;48.178;11.716;2023-05-02T03:05:22;9.60;42.00
26164;DHT22;13914;48.178;11.716;2023-05-02T03:07:48;9.60;42.50
26164;DHT22;13914;48.178;11.716;2023-05-02T03:10:14;9.60;42.20
26164;DHT22;13914;48.178;11.716;2023-05-02T03:12:40;9.60;42.60
26164;DHT22;13914;48.178;11.716;2023-05-02T03:15:13;9.60;42.80
26164;DHT22;13914;48.178;11.716;2023-05-02T03:17:48;9.60;42.50
26164;DHT22;13914;48.178;11.716;2023-05-02T03:20:14;9.60;42.20
26164;DHT22;13914;48.178;11.716;2023-05-02T03:22:39;9.50;42.10
26164;DHT22;13914;48.178;11.716;2023-05-02T03:25:05;9.50;42.10
26164;DHT22;13914;48.178;11.716;2023-05-02T03:27:31;9.50;41.70
26164;DHT22;13914;48.178;11.716;2023-05-02T03:29:57;9.50;42.40
26164;DHT22;13914;48.178;11.716;2023-05-02T03:32:23;9.50;42.30
26164;DHT22;13914;48.178;11.716;2023-05-02T03:34:49;9.50;42.70
26164;DHT22;13914;48.178;11.716;2023-05-02T03:37:14;9.40;42.40
26164;DHT22;13914;48.178;11.716;2023-05-02T03:39:40;9.50;42.40
26164;DHT22;13914;48.178;11.716;2023-05-02T03:42:06;9.40;41.90
26164;DHT22;13914;48.178;11.716;2023-05-02T03:44:31;9.40;41.80
26164;DHT22;13914;48.178;11.716;2023-05-02T03:46:57;9.40;42.30
26164;DHT22;13914;48.178;11.716;2023-05-02T03:49:23;9.40;42.30
26164;DHT22;13914;48.178;11.716;2023-05-02T03:51:48;9.40;42.20
26164;DHT22;13914;48.178;11.716;2023-05-02T03:54:14;9.30;41.90
26164;DHT22;13914;48.178;11.716;2023-05-02T03:56:40;9.40;41.50
26164;DHT22;13914;48.178;11.716;2023-05-02T03:59:06;9.30;41.90
26164;DHT22;13914;48.178;11.716;2023-05-02T04:01:32;9.30;41.90
26164;DHT22;13914;48.178;11.716;2023-05-02T04:03:58;9.30;41.50
26164;DHT22;13914;48.178;11.716;2023-05-02T04:06:23;9.30;42.00
26164;DHT22;13914;48.178;11.716;2023-05-02T04:08:49;9.20;41.80
26164;DHT22;13914;48.178;11.716;2023-05-02T04:11:15;9.20;41.50
26164;DHT22;13914;48.178;11.716;2023-05-02T04:13:40;9.20;41.60
26164;DHT22;13914;48.178;11.716;2023-05-02T04:16:07;9.20;41.90
26164;DHT22;13914;48.178;11.716;2023-05-02T04:18:33;9.20;42.10
26164;DHT22;13914;48.178;11.716;2023-05-02T04:20:59;9.20;41.90
26164;DHT22;13914;48.178;11.716;2023-05-02T04:23:24;9.10;41.50
26164;DHT22;13914;48.178;11.716;2023-05-02T04:25:51;9.10;42.00
26164;DHT22;13914;48.178;11.716;2023-05-02T04:28:17;9.10;41.90
26164;DHT22;13914;48.178;11.716;2023-05-02T04:30:44;9.10;41.60
26164;DHT22;13914;48.178;11.716;2023-05-02T04:33:10;9.10;41.50
26164;DHT22;13914;48.178;11.716;2023-05-02T04:35:38;9.10;41.40
26164;DHT22;13914;48.178;11.716;2023-05-02T04:38:04;9.10;41.50
26164;DHT22;13914;48.178;11.716;2023-05-02T04:40:30;9.10;42.10
26164;DHT22;13914;48.178;11.716;2023-05-02T04:42:56;9.10;41.90
26164;DHT22;13914;48.178;11.716;2023-05-02T04:45:22;9.10;41.60
26164;DHT22;13914;48.178;11.716;2023-05-02T04:47:48;9.10;41.50
26164;DHT22;13914;48.178;11.716;2023-05-02T04:50:13;9.10;41.90
26164;DHT22;13914;48.178;11.716;2023-05-02T04:52:39;9.10;41.70
26164;DHT22;13914;48.178;11.716;2023-05-02T04:55:05;9.00;41.10
26164;DHT22;13914;48.178;11.716;2023-05-02T04:57:31;9.10;41.10
26164;DHT22;13914;48.178;11.716;2023-05-02T04:59:57;9.10;41.40
26164;DHT22;13914;48.178;11.716;2023-05-02T05:02:23;9.10;41.50
26164;DHT22;13914;48.178;11.716;2023-05-02T05:04:52;9.10;41.20
26164;DHT22;13914;48.178;11.716;2023-05-02T05:07:17;9.10;41.20
26164;DHT22;13914;48.178;11.716;2023-05-02T05:09:43;9.10;41.60
26164;DHT22;13914;48.178;11.716;2023-05-02T05:12:09;9.10;41.50
26164;DHT22;13914;48.178;11.716;2023-05-02T05:14:35;9.10;41.70
26164;DHT22;13914;48.178;11.716;2023-05-02T05:17:00;9.10;41.40
26164;DHT22;13914;48.178;11.716;2023-05-02T05:19:26;9.10;41.60
26164;DHT22;13914;48.178;11.716;2023-05-02T05:21:52;9.20;41.60
26164;DHT22;13914;48.178;11.716;2023-05-02T05:24:17;9.20;42.10
26164;DHT22;13914;48.178;11.716;2023-05-02T05:26:43;9.20;42.20
26164;DHT22;13914;48.178;11.716;2023-05-02T05:29:09;9.20;42.10
26164;DHT22;13914;48.178;11.716;2023-05-02T05:31:35;9.20;42.30
26164;DHT22;13914;48.178;11.716;2023-05-02T05:34:00;9.20;42.30
26164;DHT22;13914;48.178;11.716;2023-05-02T05:36:27;9.30;42.40
26164;DHT22;13914;48.178;11.716;2023-05-02T05:38:53;9.30;42.40
26164;DHT22;13914;48.178;11.716;2023-05-02T05:41:18;9.30;42.20
26164;DHT22;13914;48.178;11.716;2023-05-02T05:43:44;9.30;41.90
26164;DHT22;13914;48.178;11.716;2023-05-02T05:46:10;9.30;41.90
26164;DHT22;13914;48.178;11.716;2023-05-02T05:48:35;9.40;42.60
26164;DHT22;13914;48.178;11.716;2023-05-02T05:51:04;9.40;42.40
26164;DHT22;13914;48.178;11.716;2023-05-02T05:53:30;9.40;43.00
26164;DHT22;13914;48.178;11.716;2023-05-02T05:55:56;9.40;42.90
26164;DHT22;13914;48.178;11.716;2023-05-02T05:58:22;9.40;43.10
26164;DHT22;13914;48.178;11.716;2023-05-02T06:00:48;9.40;42.60
26164;DHT22;13914;48.178;11.716;2023-05-02T06:03:14;9.50;43.90
26164;DHT22;13914;48.178;11.716;2023-05-02T06:05:40;9.50;43.40
26164;DHT22;13914;48.178;11.716;2023-05-02T06:08:06;9.50;42.60
26164;DHT22;13914;48.178;11.716;2023-05-02T06:10:31;9.50;42.20
26164;DHT22;13914;48.178;11.716;2023-05-02T06:12:57;9.50;42.10
26164;DHT22;13914;48.178;11.716;2023-05-02T06:15:23;9.60;42.10
26164;DHT22;13914;48.178;11.716;2023-05-02T06:17:49;9.60;42.70
26164;DHT22;13914;48.178;11.716;2023-05-02T06:20:16;9.70;42.40
26164;DHT22;13914;48.178;11.716;2023-05-02T06:22:44;9.60;42.60
26164;DHT22;13914;48.178;11.716;2023-05-02T06:25:10;9.70;42.30
26164;DHT22;13914;48.178;11.716;2023-05-02T06:27:36;9.70;42.40
26164;DHT22;13914;48.178;11.716;2023-05-02T06:30:02;9.80;42.80
26164;DHT22;13914;48.178;11.716;2023-05-02T06:32:31;9.80;43.00
26164;DHT22;13914;48.178;11.716;2023-05-02T06:34:57;9.80;42.70
26164;DHT22;13914;48.178;11.716;2023-05-02T06:37:22;9.90;42.80
26164;DHT22;13914;48.178;11.716;2023-05-02T06:39:48;10.00;43.20
26164;DHT22;13914;48.178;11.716;2023-05-02T06:42:14;10.00;43.00
26164;DHT22;13914;48.178;11.716;2023-05-02T06:44:40;10.00;43.20
26164;DHT22;13914;48.178;11.716;2023-05-02T06:47:05;10.10;42.90
26164;DHT22;13914;48.178;11.716;2023-05-02T06:49:31;10.10;42.90
26164;DHT22;13914;48.178;11.716;2023-05-02T06:51:59;10.20;43.50
26164;DHT22;13914;48.178;11.716;2023-05-02T06:54:25;10.20;43.70
26164;DHT22;13914;48.178;11.716;2023-05-02T06:56:50;10.30;43.50
26164;DHT22;13914;48.178;11.716;2023-05-02T06:59:16;10.30;43.30
26164;DHT22;13914;48.178;11.716;2023-05-02T07:01:42;10.40;43.30
26164;DHT22;13914;48.178;11.716;2023-05-02T07:04:08;10.40;43.20
26164;DHT22;13914;48.178;11.716;2023-05-02T07:06:34;10.50;43.40
26164;DHT22;13914;48.178;11.716;2023-05-02T07:09:00;10.50;43.30
26164;DHT22;13914;48.178;11.716;2023-05-02T07:11:26;10.60;42.80
26164;DHT22;13914;48.178;11.716;2023-05-02T07:13:52;10.70;43.30
26164;DHT22;13914;48.178;11.716;2023-05-02T07:16:18;10.70;43.50
26164;DHT22;13914;48.178;11.716;2023-05-02T07:18:44;10.80;43.30
26164;DHT22;13914;48.178;11.716;2023-05-02T07:21:10;10.80;43.20
26164;DHT22;13914;48.178;11.716;2023-05-02T07:23:36;10.90;43.20
26164;DHT22;13914;48.178;11.716;2023-05-02T07:26:02;10.90;43.30
26164;DHT22;13914;48.178;11.716;2023-05-02T07:28:28;11.00;43.30
26164;DHT22;13914;48.178;11.716;2023-05-02T07:30:54;11.10;43.50
26164;DHT22;13914;48.178;11.716;2023-05-02T07:33:19;11.10;43.60
26164;DHT22;13914;48.178;11.716;2023-05-02T07:35:49;11.20;43.10
26164;DHT22;13914;48.178;11.716;2023-05-02T07:38:15;11.20;43.00
26164;DHT22;13914;48.178;11.716;2023-05-02T07:40:41;11.20;43.20
26164;DHT22;13914;48.178;11.716;2023-05-02T07:43:08;11.30;43.90
26164;DHT22;13914;48.178;11.716;2023-05-02T07:45:34;11.40;43.60
26164;DHT22;13914;48.178;11.716;2023-05-02T07:48:00;11.40;43.40
26164;DHT22;13914;48.178;11.716;2023-05-02T07:50:25;11.40;43.30
26164;DHT22;13914;48.178;11.716;2023-05-02T07:52:51;11.50;43.00
26164;DHT22;13914;48.178;11.716;2023-05-02T07:55:19;11.50;43.00
26164;DHT22;13914;48.178;11.716;2023-05-02T07:57:44;11.60;43.00
26164;DHT22;13914;48.178;11.716;2023-05-02T08:00:10;11.60;43.10
26164;DHT22;13914;48.178;11.716;2023-05-02T08:02:36;11.70;42.90
26164;DHT22;13914;48.178;11.716;2023-05-02T08:05:02;11.70;43.00
26164;DHT22;13914;48.178;11.716;2023-05-02T08:07:28;11.70;43.20
26164;DHT22;13914;48.178;11.716;2023-05-02T08:09:54;11.80;43.00
26164;DHT22;13914;48.178;11.716;2023-05-02T08:12:20;11.90;43.10
26164;DHT22;13914;48.178;11.716;2023-05-02T08:14:45;11.90;43.10
26164;DHT22;13914;48.178;11.716;2023-05-02T08:17:11;12.00;44.10
26164;DHT22;13914;48.178;11.716;2023-05-02T08:19:37;12.00;43.20
26164;DHT22;13914;48.178;11.716;2023-05-02T08:22:02;12.10;43.40
26164;DHT22;13914;48.178;11.716;2023-05-02T08:24:28;12.20;43.30
26164;DHT22;13914;48.178;11.716;2023-05-02T08:26:55;12.20;43.10
26164;DHT22;13914;48.178;11.716;2023-05-02T08:29:21;12.30;42.90
26164;DHT22;13914;48.178;11.716;2023-05-02T08:31:48;12.30;43.80
26164;DHT22;13914;48.178;11.716;2023-05-02T08:34:13;12.40;43.20
26164;DHT22;13914;48.178;11.716;2023-05-02T08:36:39;12.40;43.60
26164;DHT22;13914;48.178;11.716;2023-05-02T08:39:05;12.50;43.00
26164;DHT22;13914;48.178;11.716;2023-05-02T08:41:32;12.50;43.50
26164;DHT22;13914;48.178;11.716;2023-05-02T08:43:58;12.60;43.40
26164;DHT22;13914;48.178;11.716;2023-05-02T08:46:23;12.60;43.80
26164;DHT22;13914;48.178;11.716;2023-05-02T08:48:50;12.70;43.40
26164;DHT22;13914;48.178;11.716;2023-05-02T08:51:17;12.80;43.00
26164;DHT22;13914;48.178;11.716;2023-05-02T08:53:43;12.80;43.30
26164;DHT22;13914;48.178;11.716;2023-05-02T08:56:10;12.80;43.30
26164;DHT22;13914;48.178;11.716;2023-05-02T08:58:37;12.90;43.30
26164;DHT22;13914;48.178;11.716;2023-05-02T09:01:14;13.00;43.10
26164;DHT22;13914;48.178;11.716;2023-05-02T09:03:44;13.10;43.10
26164;DHT22;13914;48.178;11.716;2023-05-02T09:06:12;13.20;43.30
26164;DHT22;13914;48.178;11.716;2023-05-02T09:08:42;13.20;43.20
26164;DHT22;13914;48.178;11.716;2023-05-02T09:11:11;13.30;43.50
26164;DHT22;13914;48.178;11.716;2023-05-02T09:13:55;13.30;42.80
26164;DHT22;13914;48.178;11.716;2023-05-02T09:16:25;13.40;42.90
26164;DHT22;13914;48.178;11.716;2023-05-02T09:18:54;13.40;42.60
26164;DHT22;13914;48.178;11.716;2023-05-02T09:21:21;13.50;42.90
26164;DHT22;13914;48.178;11.716;2023-05-02T09:23:51;13.60;42.80
26164;DHT22;13914;48.178;11.716;2023-05-02T09:26:19;13.60;42.70
26164;DHT22;13914;48.178;11.716;2023-05-02T09:28:46;13.70;42.70
26164;DHT22;13914;48.178;11.716;2023-05-02T09:31:14;13.70;42.50
26164;DHT22;13914;48.178;11.716;2023-05-02T09:33:41;13.80;42.60
26164;DHT22;13914;48.178;11.716;2023-05-02T09:36:08;13.80;42.30
26164;DHT22;13914;48.178;11.716;2023-05-02T09:38:35;13.90;42.40
26164;DHT22;13914;48.178;11.716;2023-05-02T09:41:00;14.00;42.40
26164;DHT22;13914;48.178;11.716;2023-05-02T09:43:28;14.00;42.30
26164;DHT22;13914;48.178;11.716;2023-05-02T09:46:08;14.00;42.00
26164;DHT22;13914;48.178;11.716;2023-05-02T09:48:50;14.00;41.80
26164;DHT22;13914;48.178;11.716;2023-05-02T09:51:17;14.10;41.80
26164;DHT22;13914;48.178;11.716;2023-05-02T09:53:43;14.10;41.70
26164;DHT22;13914;48.178;11.716;2023-05-02T09:56:09;14.20;41.80
26164;DHT22;13914;48.178;11.716;2023-05-02T09:58:35;14.20;41.40
26164;DHT22;13914;48.178;11.716;2023-05-02T10:01:01;14.20;41.80
26164;DHT22;13914;48.178;11.716;2023-05-02T10:03:27;14.30;41.90
26164;DHT22;13914;48.178;11.716;2023-05-02T10:05:54;14.30;41.80
26164;DHT22;13914;48.178;11.716;2023-05-02T10:08:21;14.30;41.70
26164;DHT22;13914;48.178;11.716;2023-05-02T10:10:51;14.30;41.60
26164;DHT22;13914;48.178;11.716;2023-05-02T10:13:18;14.40;41.60
26164;DHT22;13914;48.178;11.716;2023-05-02T10:15:48;14.40;41.60
26164;DHT22;13914;48.178;11.716;2023-05-02T10:18:28;14.50;41.70
26164;DHT22;13914;48.178;11.716;2023-05-02T10:20:58;14.50;41.30
26164;DHT22;13914;48.178;11.716;2023-05-02T10:23:26;14.50;41.30
26164;DHT22;13914;48.178;11.716;2023-05-02T10:25:53;14.60;41.60
26164;DHT22;13914;48.178;11.716;2023-05-02T10:28:19;14.60;41.60
26164;DHT22;13914;48.178;11.716;2023-05-02T10:30:46;14.60;42.10
26164;DHT22;13914;48.178;11.716;2023-05-02T10:33:12;14.60;41.50
26164;DHT22;13914;48.178;11.716;2023-05-02T10:35:40;14.60;41.60
26164;DHT22;13914;48.178;11.716;2023-05-02T10:38:18;14.70;41.70
26164;DHT22;13914;48.178;11.716;2023-05-02T10:40:59;14.60;41.70
26164;DHT22;13914;48.178;11.716;2023-05-02T10:43:26;14.60;41.70
26164;DHT22;13914;48.178;11.716;2023-05-02T10:45:54;14.60;41.70
26164;DHT22;13914;48.178;11.716;2023-05-02T10:48:21;14.60;41.70
26164;DHT22;13914;48.178;11.716;2023-05-02T10:53:22;14.70;41.70
26164;DHT22;13914;48.178;11.716;2023-05-02T10:58:36;14.60;41.70
26164;DHT22;13914;48.178;11.716;2023-05-02T11:06:22;14.60;41.90
26164;DHT22;13914;48.178;11.716;2023-05-02T11:08:49;14.60;41.60
26164;DHT22;13914;48.178;11.716;2023-05-02T11:14:03;14.60;41.80
26164;DHT22;13914;48.178;11.716;2023-05-02T11:19:23;14.60;41.90
26164;DHT22;13914;48.178;11.716;2023-05-02T11:21:49;14.60;42.10
26164;DHT22;13914;48.178;11.716;2023-05-02T11:24:37;14.60;41.70
26164;DHT22;13914;48.178;11.716;2023-05-02T11:29:55;14.70;41.30
26164;DHT22;13914;48.178;11.716;2023-05-02T11:32:22;14.70;41.10
26164;DHT22;13914;48.178;11.716;2023-05-02T11:34:48;14.70;41.90
26164;DHT22;13914;48.178;11.716;2023-05-02T11:37:17;14.70;42.10
26164;DHT22;13914;48.178;11.716;2023-05-02T11:39:45;14.70;42.80
26164;DHT22;13914;48.178;11.716;2023-05-02T11:42:29;14.70;42.60
26164;DHT22;13914;48.178;11.716;2023-05-02T11:44:57;14.70;42.50
26164;DHT22;13914;48.178;11.716;2023-05-02T11:47:26;14.60;42.70
26164;DHT22;13914;48.178;11.716;2023-05-02T11:49:54;14.70;42.40
26164;DHT22;13914;48.178;11.716;2023-05-02T11:52:21;14.70;42.80
26164;DHT22;13914;48.178;11.716;2023-05-02T11:54:48;14.70;42.60
26164;DHT22;13914;48.178;11.716;2023-05-02T11:57:14;14.70;42.50
26164;DHT22;13914;48.178;11.716;2023-05-02T11:59:50;14.70;42.30
26164;DHT22;13914;48.178;11.716;2023-05-02T12:02:16;14.80;42.90
26164;DHT22;13914;48.178;11.716;2023-05-02T12:04:41;14.70;42.20
26164;DHT22;13914;48.178;11.716;2023-05-02T12:07:08;14.70;42.00
26164;DHT22;13914;48.178;11.716;2023-05-02T12:09:34;14.70;41.90
26164;DHT22;13914;48.178;11.716;2023-05-02T12:12:00;14.80;41.80
26164;DHT22;13914;48.178;11.716;2023-05-02T12:14:30;14.80;41.70
26164;DHT22;13914;48.178;11.716;2023-05-02T12:16:58;14.80;41.70
26164;DHT22;13914;48.178;11.716;2023-05-02T12:19:24;14.80;41.50
26164;DHT22;13914;48.178;11.716;2023-05-02T12:21:50;14.80;41.40
26164;DHT22;13914;48.178;11.716;2023-05-02T12:24:16;14.80;41.30
26164;DHT22;13914;48.178;11.716;2023-05-02T12:26:41;14.80;41.20
26164;DHT22;13914;48.178;11.716;2023-05-02T12:29:07;14.80;41.20
26164;DHT22;13914;48.178;11.716;2023-05-02T12:31:33;14.80;40.70
26164;DHT22;13914;48.178;11.716;2023-05-02T12:33:59;14.80;40.70
26164;DHT22;13914;48.178;11.716;2023-05-02T12:36:25;14.80;41.00
26164;DHT22;13914;48.178;11.716;2023-05-02T12:38:55;14.70;40.80
26164;DHT22;13914;48.178;11.716;2023-05-02T12:41:33;14.70;40.80
26164;DHT22;13914;48.178;11.716;2023-05-02T12:44:00;14.70;40.50
26164;DHT22;13914;48.178;11.716;2023-05-02T12:46:26;14.70;40.70
26164;DHT22;13914;48.178;11.716;2023-05-02T12:49:05;14.70;41.00
26164;DHT22;13914;48.178;11.716;2023-05-02T12:51:32;14.70;40.50
26164;DHT22;13914;48.178;11.716;2023-05-02T12:53:58;14.70;41.10
26164;DHT22;13914;48.178;11.716;2023-05-02T12:56:24;14.70;41.10
26164;DHT22;13914;48.178;11.716;2023-05-02T12:58:56;14.70;40.90
26164;DHT22;13914;48.178;11.716;2023-05-02T13:01:27;14.70;40.90
26164;DHT22;13914;48.178;11.716;2023-05-02T13:03:53;14.70;41.00
26164;DHT22;13914;48.178;11.716;2023-05-02T13:06:19;14.70;41.00
26164;DHT22;13914;48.178;11.716;2023-05-02T13:08:44;14.70;41.00
26164;DHT22;13914;48.178;11.716;2023-05-02T13:11:10;14.70;41.10
26164;DHT22;13914;48.178;11.716;2023-05-02T13:13:37;14.70;41.10
26164;DHT22;13914;48.178;11.716;2023-05-02T13:16:03;14.70;41.00
26164;DHT22;13914;48.178;11.716;2023-05-02T13:18:29;14.80;41.00
26164;DHT22;13914;48.178;11.716;2023-05-02T13:20:55;14.80;40.70
26164;DHT22;13914;48.178;11.716;2023-05-02T13:23:21;14.80;41.10
26164;DHT22;13914;48.178;11.716;2023-05-02T13:25:46;14.80;40.80
26164;DHT22;13914;48.178;11.716;2023-05-02T13:28:12;14.90;40.80
26164;DHT22;13914;48.178;11.716;2023-05-02T13:30:38;14.90;41.10
26164;DHT22;13914;48.178;11.716;2023-05-02T13:33:03;14.90;41.00
26164;DHT22;13914;48.178;11.716;2023-05-02T13:35:29;14.90;41.00
26164;DHT22;13914;48.178;11.716;2023-05-02T13:37:55;15.00;40.90
26164;DHT22;13914;48.178;11.716;2023-05-02T13:40:20;15.00;40.90
26164;DHT22;13914;48.178;11.716;2023-05-02T13:42:46;14.90;41.00
26164;DHT22;13914;48.178;11.716;2023-05-02T13:45:12;14.90;40.90
26164;DHT22;13914;48.178;11.716;2023-05-02T13:47:38;15.00;41.00
26164;DHT22;13914;48.178;11.716;2023-05-02T13:50:04;15.00;40.90
26164;DHT22;13914;48.178;11.716;2023-05-02T13:52:31;15.00;40.90
26164;DHT22;13914;48.178;11.716;2023-05-02T13:54:57;15.00;40.80
26164;DHT22;13914;48.178;11.716;2023-05-02T13:57:22;15.00;40.70
26164;DHT22;13914;48.178;11.716;2023-05-02T13:59:48;15.00;40.60
26164;DHT22;13914;48.178;11.716;2023-05-02T14:02:13;15.00;39.50
26164;DHT22;13914;48.178;11.716;2023-05-02T14:04:39;14.90;39.30
26164;DHT22;13914;48.178;11.716;2023-05-02T14:07:05;14.80;39.90
26164;DHT22;13914;48.178;11.716;2023-05-02T14:09:31;14.80;39.80
26164;DHT22;13914;48.178;11.716;2023-05-02T14:11:56;14.70;40.20
26164;DHT22;13914;48.178;11.716;2023-05-02T14:14:23;14.70;40.20
26164;DHT22;13914;48.178;11.716;2023-05-02T14:16:49;14.50;40.40
26164;DHT22;13914;48.178;11.716;2023-05-02T14:19:14;14.40;40.70
26164;DHT22;13914;48.178;11.716;2023-05-02T14:21:40;14.40;41.10
26164;DHT22;13914;48.178;11.716;2023-05-02T14:24:06;14.40;41.20
26164;DHT22;13914;48.178;11.716;2023-05-02T14:26:32;14.40;41.10
26164;DHT22;13914;48.178;11.716;2023-05-02T14:28:57;14.40;40.90
26164;DHT22;13914;48.178;11.716;2023-05-02T14:31:23;14.40;40.80
26164;DHT22;13914;48.178;11.716;2023-05-02T14:33:49;14.30;40.50
26164;DHT22;13914;48.178;11.716;2023-05-02T14:36:15;14.40;40.20
26164;DHT22;13914;48.178;11.716;2023-05-02T14:38:40;14.40;40.20
26164;DHT22;13914;48.178;11.716;2023-05-02T14:41:06;14.30;40.20
26164;DHT22;13914;48.178;11.716;2023-05-02T14:43:32;14.20;40.70
26164;DHT22;13914;48.178;11.716;2023-05-02T14:45:57;14.20;40.60
26164;DHT22;13914;48.178;11.716;2023-05-02T14:48:23;14.20;40.80
26164;DHT22;13914;48.178;11.716;2023-05-02T14:50:49;14.10;40.70
26164;DHT22;13914;48.178;11.716;2023-05-02T14:53:15;14.00;40.80
26164;DHT22;13914;48.178;11.716;2023-05-02T14:55:41;14.00;40.40
26164;DHT22;13914;48.178;11.716;2023-05-02T14:58:07;14.00;40.70
26164;DHT22;13914;48.178;11.716;2023-05-02T15:00:36;13.90;40.70
26164;DHT22;13914;48.178;11.716;2023-05-02T15:03:03;13.80;40.80
26164;DHT22;13914;48.178;11.716;2023-05-02T15:05:32;13.80;40.80
26164;DHT22;13914;48.178;11.716;2023-05-02T15:07:58;13.70;41.00
26164;DHT22;13914;48.178;11.716;2023-05-02T15:10:24;13.70;40.80
26164;DHT22;13914;48.178;11.716;2023-05-02T15:12:50;13.60;41.00
26164;DHT22;13914;48.178;11.716;2023-05-02T15:15:16;13.60;41.00
26164;DHT22;13914;48.178;11.716;2023-05-02T15:17:42;13.60;41.00
26164;DHT22;13914;48.178;11.716;2023-05-02T15:20:08;13.50;40.90
26164;DHT22;13914;48.178;11.716;2023-05-02T15:22:34;13.50;41.00
26164;DHT22;13914;48.178;11.716;2023-05-02T15:25:00;13.50;41.10
26164;DHT22;13914;48.178;11.716;2023-05-02T15:27:25;13.50;41.10
26164;DHT22;13914;48.178;11.716;2023-05-02T15:29:51;13.50;41.20
26164;DHT22;13914;48.178;11.716;2023-05-02T15:32:17;13.50;41.00
26164;DHT22;13914;48.178;11.716;2023-05-02T15:34:42;13.50;41.50
26164;DHT22;13914;48.178;11.716;2023-05-02T15:37:08;13.50;41.60
26164;DHT22;13914;48.178;11.716;2023-05-02T15:39:34;13.50;41.90
26164;DHT22;13914;48.178;11.716;2023-05-02T15:42:03;13.50;41.90
26164;DHT22;13914;48.178;11.716;2023-05-02T15:44:33;13.50;41.70
26164;DHT22;13914;48.178;11.716;2023-05-02T15:47:00;13.40;41.80
26164;DHT22;13914;48.178;11.716;2023-05-02T15:49:26;13.50;42.00
26164;DHT22;13914;48.178;11.716;2023-05-02T15:51:56;13.50;42.40